Time;durP1;ratioP1;P1;durP2;ratioP2;P2;SDS_P1;SDS_P2;PMS_P1;PMS_P2;Temp;Humidity;BMP_temperature;BMP_pressure;BME280_temperature;BME280_humidity;BME280_pressure;Samples;Min_cycle;Max_cycle;Signal;HPM_P1;HPM_P2
2021/03/27 00:01:14;;;;;;;28.80;26.60;;;12.10;70.00;;;;;;5095210;28;20540;-77
2021/03/27 00:03:48;;;;;;;28.83;26.63;;;12.40;69.80;;;;;;5094996;28;20514;-77
2021/03/27 00:06:23;;;;;;;28.13;26.30;;;12.50;69.70;;;;;;5095506;28;20451;-77
2021/03/27 00:08:53;;;;;;;28.13;26.40;;;12.60;69.30;;;;;;5095237;28;20799;-77
2021/03/27 00:11:33;;;;;;;28.50;26.60;;;12.70;69.40;;;;;;5095125;28;20449;-77
2021/03/27 00:14:03;;;;;;;28.70;26.80;;;12.70;69.60;;;;;;5095182;28;20447;-77
2021/03/27 00:16:33;;;;;;;28.27;26.47;;;12.80;69.40;;;;;;5094978;28;20437;-77
2021/03/27 00:19:05;;;;;;;29.67;27.67;;;12.80;69.60;;;;;;5094131;28;20465;-77
2021/03/27 00:21:38;;;;;;;27.67;25.97;;;12.80;69.50;;;;;;5094897;28;20524;-77
2021/03/27 00:24:10;;;;;;;28.13;26.43;;;12.90;69.20;;;;;;5094780;28;20950;-77
2021/03/27 00:26:41;;;;;;;26.90;25.13;;;12.80;69.00;;;;;;5094755;28;20458;-78
2021/03/27 00:29:12;;;;;;;27.27;25.63;;;12.90;68.80;;;;;;5094596;28;20477;-77
2021/03/27 00:31:43;;;;;;;27.47;25.87;;;13.00;68.40;;;;;;5094573;28;21066;-77
2021/03/27 00:34:13;;;;;;;27.50;25.90;;;13.00;68.40;;;;;;5094264;28;20464;-77
2021/03/27 00:36:43;;;;;;;28.27;26.07;;;13.00;68.70;;;;;;5094393;28;20540;-77
2021/03/27 00:39:15;;;;;;;26.87;25.30;;;13.10;68.80;;;;;;5094183;28;20469;-77
2021/03/27 00:41:47;;;;;;;27.40;25.40;;;13.00;69.10;;;;;;5094290;28;20453;-77
2021/03/27 00:44:15;;;;;;;27.40;25.70;;;13.00;69.20;;;;;;5094343;28;20495;-77
2021/03/27 00:46:44;;;;;;;27.17;25.57;;;12.80;69.70;;;;;;5093988;28;20475;-77
2021/03/27 00:49:15;;;;;;;26.97;25.37;;;12.90;69.80;;;;;;5094033;28;20512;-77
2021/03/27 00:51:44;;;;;;;27.30;25.60;;;12.90;69.80;;;;;;5094025;28;20510;-77
2021/03/27 00:54:19;;;;;;;27.03;25.43;;;12.80;70.10;;;;;;5094091;28;20453;-77
2021/03/27 00:56:52;;;;;;;27.40;25.70;;;12.80;70.20;;;;;;5093937;28;20448;-77
2021/03/27 00:59:22;;;;;;;27.40;25.70;;;12.80;70.40;;;;;;5093725;28;20470;-78
2021/03/27 01:01:54;;;;;;;26.90;25.30;;;12.70;70.60;;;;;;5093960;28;20511;-77
2021/03/27 01:04:23;;;;;;;27.00;25.40;;;12.70;70.60;;;;;;5093814;28;20473;-77
2021/03/27 01:06:53;;;;;;;26.80;25.20;;;12.70;70.70;;;;;;5093672;28;20456;-77
2021/03/27 01:09:27;;;;;;;26.97;25.37;;;12.70;70.30;;;;;;5093835;28;20559;-77
2021/03/27 01:12:00;;;;;;;28.00;25.87;;;12.70;70.60;;;;;;5093844;28;20514;-77
2021/03/27 01:14:31;;;;;;;27.50;25.70;;;12.70;71.10;;;;;;5093981;28;20464;-77
2021/03/27 01:17:00;;;;;;;28.07;26.37;;;12.70;71.90;;;;;;5093613;28;20456;-77
2021/03/27 01:19:31;;;;;;;26.30;24.80;;;12.60;72.50;;;;;;5093629;28;20461;-78
2021/03/27 01:22:02;;;;;;;26.57;25.10;;;12.50;72.90;;;;;;5096200;28;20449;-77
2021/03/27 01:24:30;;;;;;;27.40;25.80;;;12.40;73.50;;;;;;5096802;28;20479;-77
2021/03/27 01:26:59;;;;;;;26.10;24.60;;;12.40;73.80;;;;;;5093655;28;20452;-78
2021/03/27 01:29:30;;;;;;;26.20;24.70;;;12.40;74.10;;;;;;5093470;28;21009;-77
2021/03/27 01:32:06;;;;;;;25.63;24.13;;;12.40;74.30;;;;;;5093505;28;20926;-77
2021/03/27 01:34:41;;;;;;;26.47;24.97;;;12.40;74.30;;;;;;5093445;28;20470;-78
2021/03/27 01:37:13;;;;;;;26.87;25.30;;;12.30;74.60;;;;;;5093416;28;20479;-77
2021/03/27 01:39:52;;;;;;;25.93;24.10;;;12.30;74.90;;;;;;5093286;28;21013;-77
2021/03/27 01:42:25;;;;;;;26.17;24.40;;;12.30;75.10;;;;;;5093332;28;20457;-77
2021/03/27 01:45:14;;;;;;;25.83;24.33;;;12.20;75.30;;;;;;5093202;28;20534;-77
2021/03/27 01:47:44;;;;;;;24.93;23.43;;;12.10;76.30;;;;;;5093234;28;20457;-78
2021/03/27 01:50:19;;;;;;;26.10;24.57;;;12.10;76.50;;;;;;5093110;28;20982;-77
2021/03/27 01:53:13;;;;;;;25.10;23.60;;;12.10;77.20;;;;;;5093167;28;21013;-77
2021/03/27 01:55:50;;;;;;;25.03;23.63;;;12.10;78.10;;;;;;5079303;28;20476;-77
2021/03/27 01:58:23;;;;;;;26.97;25.10;;;12.00;78.70;;;;;;5093013;28;20457;-77
2021/03/27 02:00:52;;;;;;;25.50;23.90;;;12.00;79.30;;;;;;5093367;28;20480;-77
2021/03/27 02:03:24;;;;;;;25.23;23.83;;;12.00;79.30;;;;;;5094052;28;20463;-77
2021/03/27 02:05:54;;;;;;;24.77;23.17;;;12.00;80.70;;;;;;5093349;28;20480;-77
2021/03/27 02:08:35;;;;;;;25.60;24.00;;;11.90;80.70;;;;;;5093134;28;20539;-77
2021/03/27 02:11:08;;;;;;;25.70;24.20;;;11.90;80.60;;;;;;5093238;28;20445;-77
2021/03/27 02:13:43;;;;;;;25.40;23.80;;;11.80;81.00;;;;;;5093151;28;20526;-77
2021/03/27 02:16:17;;;;;;;25.17;23.47;;;11.80;81.50;;;;;;5092587;28;20453;-77
2021/03/27 02:19:01;;;;;;;24.37;22.97;;;11.80;81.80;;;;;;5092901;28;20456;-77
2021/03/27 02:21:50;;;;;;;24.37;22.93;;;11.70;82.20;;;;;;5092924;28;20545;-77
2021/03/27 02:24:37;;;;;;;25.37;23.80;;;11.80;82.20;;;;;;5093010;28;20457;-77
2021/03/27 02:27:09;;;;;;;25.00;23.40;;;11.80;82.30;;;;;;5092517;28;20926;-78
2021/03/27 02:30:05;;;;;;;23.70;22.40;;;11.80;82.40;;;;;;5092622;28;20469;-77
2021/03/27 02:32:56;;;;;;;24.10;22.70;;;11.70;83.20;;;;;;5092574;28;20953;-77
2021/03/27 02:35:37;;;;;;;23.87;22.37;;;11.70;83.80;;;;;;5092469;28;20457;-77
2021/03/27 02:38:15;;;;;;;23.33;21.93;;;11.60;84.20;;;;;;5092711;28;20814;-77
2021/03/27 02:40:47;;;;;;;23.90;22.40;;;11.60;84.10;;;;;;5092649;28;20472;-77
2021/03/27 02:43:21;;;;;;;24.00;22.30;;;11.50;84.30;;;;;;5094880;28;20973;-77
2021/03/27 02:46:00;;;;;;;24.30;22.63;;;11.40;84.90;;;;;;5096407;28;20473;-77
2021/03/27 02:48:39;;;;;;;23.40;21.70;;;11.40;85.00;;;;;;5096587;28;20540;-77
2021/03/27 02:51:11;;;;;;;22.40;21.00;;;11.30;85.70;;;;;;5096529;28;20964;-77
2021/03/27 02:53:44;;;;;;;22.47;21.07;;;11.40;85.20;;;;;;5096492;28;20457;-77
2021/03/27 02:56:27;;;;;;;22.05;20.65;;;11.30;85.60;;;;;;5096261;28;20456;-77
2021/03/27 02:59:09;;;;;;;22.23;20.93;;;11.40;85.60;;;;;;5096145;28;20191;-77
2021/03/27 03:01:43;;;;;;;22.20;20.80;;;11.30;85.50;;;;;;5096408;28;20548;-77
2021/03/27 03:04:17;;;;;;;21.93;20.63;;;11.40;85.00;;;;;;5095830;28;20448;-77
2021/03/27 03:06:50;;;;;;;22.85;21.38;;;11.40;85.20;;;;;;5095903;28;20542;-77
2021/03/27 03:09:22;;;;;;;21.45;20.25;;;11.40;85.20;;;;;;5096259;28;20688;-77
2021/03/27 03:11:58;;;;;;;21.37;20.10;;;11.30;85.20;;;;;;5096195;28;20679;-77
2021/03/27 03:14:41;;;;;;;21.17;19.90;;;11.30;85.20;;;;;;5096100;28;20807;-77
2021/03/27 03:17:17;;;;;;;21.70;20.50;;;11.20;85.50;;;;;;5096157;28;20453;-77
2021/03/27 03:19:48;;;;;;;20.80;19.50;;;11.20;85.60;;;;;;5096162;28;20219;-77
2021/03/27 03:22:19;;;;;;;21.77;20.27;;;11.20;85.50;;;;;;5095973;28;20518;-77
2021/03/27 03:24:49;;;;;;;20.65;19.20;;;11.10;85.40;;;;;;5095776;28;20298;-77
2021/03/27 03:27:22;;;;;;;21.20;19.90;;;11.10;85.20;;;;;;5095591;28;20255;-77
2021/03/27 03:29:55;;;;;;;20.07;18.93;;;11.10;85.50;;;;;;5095676;28;20476;-77
2021/03/27 03:32:47;;;;;;;20.10;19.00;;;11.10;85.60;;;;;;5095691;28;20984;-77
2021/03/27 03:35:28;;;;;;;20.58;19.27;;;11.10;85.70;;;;;;5091616;28;20199;-77
2021/03/27 03:38:19;;;;;;;21.25;20.00;;;11.00;86.10;;;;;;5095661;28;20588;-77
2021/03/27 03:41:02;;;;;;;20.10;18.90;;;11.00;87.50;;;;;;5095281;28;20794;-77
2021/03/27 03:43:33;;;;;;;20.13;19.03;;;11.00;87.90;;;;;;5095387;28;20449;-77
2021/03/27 03:46:32;;;;;;;19.93;18.80;;;11.00;87.00;;;;;;5095105;28;21118;-78
2021/03/27 03:49:37;;;;;;;19.00;17.90;;;11.00;86.60;;;;;;5095342;28;20480;-77
2021/03/27 03:52:34;;;;;;;18.45;17.45;;;10.90;87.30;;;;;;5082827;28;20453;-77
2021/03/27 03:55:22;;;;;;;19.33;18.05;;;10.70;86.10;;;;;;5087304;28;20195;-77
2021/03/27 03:58:29;;;;;;;19.27;18.38;;;10.50;82.50;;;;;;5094913;28;20600;-77
2021/03/27 04:01:05;;;;;;;19.30;18.40;;;10.20;80.00;;;;;;5095099;28;20230;-77
2021/03/27 04:03:38;;;;;;;18.65;17.65;;;10.10;80.90;;;;;;5095017;28;20194;-77
2021/03/27 04:06:11;;;;;;;20.65;19.45;;;10.10;80.40;;;;;;5094787;28;20728;-77
2021/03/27 04:08:49;;;;;;;18.90;18.00;;;10.10;79.80;;;;;;5094911;28;20196;-77
2021/03/27 04:11:37;;;;;;;18.80;17.77;;;10.00;80.10;;;;;;5095059;28;20206;-77
2021/03/27 04:14:08;;;;;;;19.08;18.17;;;10.00;79.80;;;;;;5095172;28;20664;-77
2021/03/27 04:16:40;;;;;;;19.20;18.30;;;9.90;79.20;;;;;;5094807;28;20199;-77
2021/03/27 04:19:15;;;;;;;20.00;19.10;;;9.90;78.80;;;;;;5094868;28;20621;-77
2021/03/27 04:21:53;;;;;;;19.73;18.50;;;9.80;78.70;;;;;;5094808;28;20656;-77
2021/03/27 04:24:27;;;;;;;19.58;18.67;;;9.70;79.20;;;;;;5095188;28;20195;-77
2021/03/27 04:26:57;;;;;;;20.08;19.15;;;9.60;79.30;;;;;;5094768;28;20286;-77
2021/03/27 04:29:32;;;;;;;20.15;19.15;;;9.60;79.10;;;;;;5094705;28;20298;-77
2021/03/27 04:32:45;;;;;;;21.05;19.95;;;9.60;78.60;;;;;;5094730;28;20255;-77
2021/03/27 04:35:43;;;;;;;20.13;19.15;;;9.40;77.50;;;;;;5074067;28;20238;-77
2021/03/27 04:38:17;;;;;;;20.30;19.30;;;9.30;78.90;;;;;;5094662;28;20214;-77
2021/03/27 04:40:47;;;;;;;20.50;19.50;;;9.30;78.50;;;;;;5094338;28;20215;-76
2021/03/27 04:43:21;;;;;;;19.40;18.50;;;9.30;78.20;;;;;;5094352;28;20556;-77
2021/03/27 04:45:51;;;;;;;20.15;19.10;;;9.20;79.50;;;;;;5094083;28;20305;-76
2021/03/27 04:48:25;;;;;;;20.13;19.13;;;9.10;81.50;;;;;;5094173;28;20201;-76
2021/03/27 04:51:08;;;;;;;20.30;19.30;;;9.20;80.70;;;;;;5094245;28;20222;-77
2021/03/27 04:53:41;;;;;;;20.35;19.35;;;9.20;80.20;;;;;;5094267;28;20657;-77
2021/03/27 04:56:13;;;;;;;20.10;19.10;;;9.20;79.60;;;;;;5094244;28;20187;-77
2021/03/27 04:58:45;;;;;;;20.20;19.20;;;9.30;79.20;;;;;;5095062;28;20203;-77
2021/03/27 05:01:19;;;;;;;21.63;20.63;;;9.20;78.80;;;;;;5094883;28;20556;-77
2021/03/27 05:03:56;;;;;;;21.17;20.13;;;9.20;78.00;;;;;;5093931;28;20205;-77
2021/03/27 05:06:35;;;;;;;21.15;20.13;;;9.10;76.70;;;;;;5093474;28;20268;-77
2021/03/27 05:09:27;;;;;;;20.70;19.70;;;9.00;76.20;;;;;;5093923;28;20275;-77
2021/03/27 05:11:58;;;;;;;20.90;19.90;;;9.00;77.00;;;;;;5095177;28;20198;-77
2021/03/27 05:14:44;;;;;;;20.58;19.50;;;8.80;76.20;;;;;;5096091;28;20191;-77
2021/03/27 05:17:21;;;;;;;20.38;19.48;;;8.80;77.20;;;;;;5093604;28;20209;-77
2021/03/27 05:19:56;;;;;;;20.98;19.88;;;8.70;76.70;;;;;;5093659;28;20218;-77
2021/03/27 05:22:46;;;;;;;20.88;19.83;;;8.70;76.80;;;;;;5093641;28;20199;-77
2021/03/27 05:25:32;;;;;;;21.00;20.00;;;8.70;76.70;;;;;;5093471;28;20211;-77
2021/03/27 05:28:08;;;;;;;20.92;19.80;;;8.60;77.20;;;;;;5093518;28;20210;-77
2021/03/27 05:30:48;;;;;;;20.95;19.95;;;8.60;76.30;;;;;;5093410;28;20211;-77
2021/03/27 05:33:38;;;;;;;20.40;19.40;;;8.50;77.10;;;;;;5093337;28;20223;-77
2021/03/27 05:36:26;;;;;;;20.30;19.40;;;8.60;76.80;;;;;;5092942;28;20237;-77
2021/03/27 05:39:00;;;;;;;20.75;19.75;;;8.60;76.40;;;;;;5093323;28;20195;-77
2021/03/27 05:41:59;;;;;;;20.40;19.40;;;8.60;76.30;;;;;;5093217;28;20673;-77
2021/03/27 05:44:50;;;;;;;20.98;19.98;;;8.50;76.50;;;;;;5093454;28;20186;-77
2021/03/27 05:48:04;;;;;;;23.90;22.70;;;8.40;77.20;;;;;;5093184;28;20251;-76
2021/03/27 05:51:09;;;;;;;21.85;20.75;;;8.40;76.10;;;;;;5011263;28;20218;-77
2021/03/27 05:54:02;;;;;;;20.85;19.85;;;8.40;76.80;;;;;;5093093;28;20204;-77
2021/03/27 05:57:03;;;;;;;21.42;20.35;;;8.50;75.90;;;;;;5079218;28;20208;-77
2021/03/27 06:00:01;;;;;;;20.85;19.85;;;8.50;75.40;;;;;;5074636;28;20217;-77
2021/03/27 06:02:52;;;;;;;21.10;20.10;;;8.40;75.70;;;;;;5093198;28;20198;-77
2021/03/27 06:05:33;;;;;;;20.42;19.45;;;8.40;75.60;;;;;;5092753;28;20258;-77
2021/03/27 06:08:28;;;;;;;20.10;19.00;;;8.40;74.70;;;;;;5093050;28;20569;-77
2021/03/27 06:11:07;;;;;;;21.48;20.38;;;8.50;74.80;;;;;;5092848;28;20219;-77
2021/03/27 06:13:49;;;;;;;21.20;20.20;;;8.60;74.40;;;;;;5092873;28;20267;-77
2021/03/27 06:16:45;;;;;;;21.95;20.65;;;8.60;73.00;;;;;;5092577;28;20198;-77
2021/03/27 06:19:54;;;;;;;21.20;20.10;;;8.60;70.50;;;;;;5092751;28;20218;-77
2021/03/27 06:22:55;;;;;;;22.23;21.13;;;8.60;71.20;;;;;;5092677;28;20682;-77
2021/03/27 06:25:45;;;;;;;22.60;21.40;;;8.60;71.20;;;;;;5092648;28;20219;-77
2021/03/27 06:28:26;;;;;;;21.50;20.40;;;8.60;71.30;;;;;;5092655;28;20279;-77
2021/03/27 06:31:13;;;;;;;22.80;21.40;;;8.60;72.10;;;;;;5092728;28;20215;-77
2021/03/27 06:33:54;;;;;;;23.00;21.90;;;8.50;72.10;;;;;;5091091;28;20224;-77
2021/03/27 06:36:45;;;;;;;21.65;20.55;;;8.40;73.40;;;;;;5092533;28;20238;-76
2021/03/27 06:39:38;;;;;;;21.55;20.27;;;8.40;73.70;;;;;;5088995;28;20215;-77
2021/03/27 06:42:27;;;;;;;20.75;19.75;;;8.20;73.30;;;;;;5092666;28;20215;-77
2021/03/27 06:45:19;;;;;;;20.50;19.50;;;8.20;73.70;;;;;;5092521;28;20302;-77
2021/03/27 06:48:14;;;;;;;21.70;20.50;;;8.20;74.10;;;;;;5092309;28;20547;-77
2021/03/27 06:51:01;;;;;;;21.40;20.30;;;8.20;73.50;;;;;;5092551;28;20222;-77
2021/03/27 06:53:47;;;;;;;22.50;21.30;;;8.20;73.90;;;;;;5092425;28;20675;-77
2021/03/27 06:56:50;;;;;;;22.83;21.63;;;8.20;73.80;;;;;;5078898;28;20193;-77
2021/03/27 06:59:37;;;;;;;22.00;20.80;;;8.50;73.50;;;;;;5092343;28;20264;-77
2021/03/27 07:02:28;;;;;;;22.13;20.92;;;8.50;71.60;;;;;;5092437;28;20206;-77
2021/03/27 07:05:38;;;;;;;22.08;20.95;;;8.50;71.40;;;;;;5092310;28;20372;-78
2021/03/27 07:08:26;;;;;;;23.02;21.50;;;8.50;69.30;;;;;;5092422;28;20202;-77
2021/03/27 07:11:17;;;;;;;21.83;20.73;;;8.70;67.40;;;;;;5092906;28;20305;-77
2021/03/27 07:14:23;;;;;;;22.65;21.45;;;8.70;66.70;;;;;;5092707;28;20195;-77
2021/03/27 07:17:09;;;;;;;22.60;21.30;;;8.90;66.70;;;;;;5092116;28;20724;-77
2021/03/27 07:20:09;;;;;;;21.00;19.98;;;9.20;66.50;;;;;;5092480;28;20579;-77
2021/03/27 07:22:59;;;;;;;21.92;20.63;;;9.40;65.70;;;;;;5093062;28;20191;-77
2021/03/27 07:25:51;;;;;;;22.50;21.30;;;9.60;64.50;;;;;;5092571;28;20226;-77
2021/03/27 07:28:40;;;;;;;21.70;20.60;;;9.80;63.20;;;;;;5093108;28;20199;-77
2021/03/27 07:31:26;;;;;;;22.08;20.88;;;9.50;62.30;;;;;;5096009;28;20733;-77
2021/03/27 07:34:18;;;;;;;23.75;22.25;;;9.50;63.10;;;;;;5095775;28;20191;-77
2021/03/27 07:37:10;;;;;;;22.10;20.95;;;9.00;62.00;;;;;;5095684;28;20664;-77
2021/03/27 07:39:49;;;;;;;22.60;21.25;;;8.80;62.00;;;;;;5095693;28;20219;-76
2021/03/27 07:42:54;;;;;;;22.40;21.30;;;8.70;62.10;;;;;;5095732;28;20191;-76
2021/03/27 07:45:37;;;;;;;23.00;21.80;;;8.60;62.80;;;;;;5095423;28;20219;-76
2021/03/27 07:48:39;;;;;;;23.50;22.05;;;8.70;62.90;;;;;;5095575;28;20202;-77
2021/03/27 07:51:31;;;;;;;22.17;20.90;;;8.70;62.80;;;;;;5095401;28;20661;-77
2021/03/27 07:54:27;;;;;;;22.80;21.40;;;8.70;62.90;;;;;;5086433;28;20195;-77
2021/03/27 07:57:20;;;;;;;22.48;21.30;;;8.90;62.00;;;;;;5095185;28;20192;-77
2021/03/27 08:00:20;;;;;;;22.80;21.50;;;9.10;61.20;;;;;;5094910;28;20212;-77
2021/03/27 08:03:27;;;;;;;22.58;21.30;;;9.30;60.80;;;;;;5094943;28;20548;-77
2021/03/27 08:06:33;;;;;;;23.13;21.50;;;9.10;60.20;;;;;;5094933;28;20530;-77
2021/03/27 08:09:48;;;;;;;22.50;21.20;;;9.10;59.60;;;;;;5083804;28;20250;-77
2021/03/27 08:12:50;;;;;;;21.90;20.80;;;9.10;60.40;;;;;;5012705;28;20202;-77
2021/03/27 08:15:30;;;;;;;23.20;21.90;;;9.20;60.20;;;;;;5095213;28;20187;-77
2021/03/27 08:18:22;;;;;;;22.05;20.95;;;9.40;60.40;;;;;;5094902;28;20206;-77
2021/03/27 08:20:57;;;;;;;22.60;21.33;;;9.40;60.20;;;;;;5094757;28;20298;-77
2021/03/27 08:23:54;;;;;;;22.88;21.67;;;9.50;60.90;;;;;;5094846;28;20195;-77
2021/03/27 08:26:49;;;;;;;23.92;22.63;;;9.70;60.20;;;;;;5094523;28;20227;-77
2021/03/27 08:29:55;;;;;;;22.45;21.25;;;9.50;59.40;;;;;;5064849;28;20247;-77
2021/03/27 08:32:38;;;;;;;21.65;20.55;;;9.50;59.80;;;;;;5094526;28;20293;-77
2021/03/27 08:35:28;;;;;;;21.98;20.88;;;9.40;59.30;;;;;;5094576;28;20681;-77
2021/03/27 08:38:17;;;;;;;22.73;21.42;;;9.50;58.60;;;;;;5094449;28;20653;-77
2021/03/27 08:41:00;;;;;;;21.80;20.60;;;9.40;56.10;;;;;;5093690;28;20226;-77
2021/03/27 08:44:05;;;;;;;21.88;20.75;;;9.50;55.40;;;;;;5094473;28;20222;-77
2021/03/27 08:47:01;;;;;;;23.10;21.90;;;9.40;54.80;;;;;;5094345;28;20215;-77
2021/03/27 08:49:57;;;;;;;22.90;21.70;;;9.50;55.20;;;;;;5077494;28;20254;-78
2021/03/27 08:53:15;;;;;;;23.55;22.35;;;9.70;53.70;;;;;;5094395;28;20664;-77
2021/03/27 08:56:06;;;;;;;24.98;23.77;;;9.70;53.20;;;;;;5094067;28;20210;-77
2021/03/27 08:58:54;;;;;;;23.88;22.45;;;9.80;52.60;;;;;;5093865;28;20223;-77
2021/03/27 09:01:58;;;;;;;25.30;24.02;;;10.00;51.60;;;;;;5094438;28;20203;-77
2021/03/27 09:04:42;;;;;;;22.10;20.90;;;10.10;52.10;;;;;;5097458;28;20206;-77
2021/03/27 09:08:06;;;;;;;22.45;21.35;;;10.30;51.40;;;;;;5094099;28;20195;-77
2021/03/27 09:10:53;;;;;;;22.77;21.63;;;10.30;51.10;;;;;;5062899;28;20211;-76
2021/03/27 09:13:45;;;;;;;22.63;21.42;;;10.50;50.70;;;;;;5094116;28;20199;-77
2021/03/27 09:16:50;;;;;;;22.05;20.75;;;10.60;50.40;;;;;;5093776;28;20200;-76
2021/03/27 09:19:37;;;;;;;22.40;21.23;;;10.80;49.70;;;;;;5093751;28;20252;-77
2021/03/27 09:22:38;;;;;;;22.00;20.90;;;10.80;49.80;;;;;;5093976;28;20648;-77
2021/03/27 09:25:18;;;;;;;22.25;21.05;;;10.80;49.50;;;;;;5093488;28;20199;-77
2021/03/27 09:28:26;;;;;;;21.80;20.70;;;10.70;49.80;;;;;;5093389;28;20199;-77
2021/03/27 09:31:04;;;;;;;25.27;24.00;;;10.80;50.20;;;;;;5051849;28;20219;-77
2021/03/27 09:33:35;;;;;;;23.42;22.33;;;10.80;50.20;;;;;;5093415;28;20199;-77
2021/03/27 09:36:19;;;;;;;22.42;21.27;;;10.90;50.50;;;;;;5093145;28;20204;-77
2021/03/27 09:38:56;;;;;;;23.58;22.27;;;10.90;50.20;;;;;;5093254;28;20660;-77
2021/03/27 09:41:47;;;;;;;22.65;21.45;;;10.80;50.10;;;;;;5093162;28;20802;-77
2021/03/27 09:45:07;;;;;;;22.38;21.23;;;10.90;49.90;;;;;;5093268;28;20207;-77
2021/03/27 09:47:54;;;;;;;23.60;22.40;;;11.00;49.70;;;;;;5093070;28;20195;-77
2021/03/27 09:50:32;;;;;;;23.02;21.83;;;11.20;49.30;;;;;;5093003;28;20738;-77
2021/03/27 09:53:22;;;;;;;22.60;21.50;;;11.30;47.90;;;;;;5092212;28;20647;-77
2021/03/27 09:55:55;;;;;;;23.08;21.98;;;11.40;48.30;;;;;;5092953;28;20195;-77
2021/03/27 09:58:47;;;;;;;23.67;22.07;;;11.50;48.20;;;;;;5092861;28;20253;-77
2021/03/27 10:01:25;;;;;;;23.40;22.17;;;11.60;47.90;;;;;;5075746;28;20872;-77
2021/03/27 10:04:13;;;;;;;23.25;22.05;;;11.60;47.50;;;;;;5092928;28;20462;-77
2021/03/27 10:07:09;;;;;;;22.53;21.23;;;11.50;45.60;;;;;;5093052;28;20222;-78
2021/03/27 10:09:50;;;;;;;24.27;22.90;;;11.20;46.00;;;;;;5093314;28;20474;-77
2021/03/27 10:12:22;;;;;;;22.70;21.20;;;11.20;45.70;;;;;;5093165;28;20445;-77
2021/03/27 10:14:54;;;;;;;22.95;21.75;;;11.30;46.30;;;;;;5093126;28;20457;-77
2021/03/27 10:17:28;;;;;;;22.02;20.73;;;11.30;46.70;;;;;;5092558;28;20286;-77
2021/03/27 10:20:01;;;;;;;22.80;21.50;;;11.40;45.00;;;;;;5092839;28;20298;-77
2021/03/27 10:22:45;;;;;;;22.75;21.55;;;11.40;44.80;;;;;;5093062;28;20202;-77
2021/03/27 10:25:28;;;;;;;22.55;21.20;;;11.10;44.90;;;;;;5093029;28;20246;-77
2021/03/27 10:28:04;;;;;;;21.95;20.80;;;11.10;45.30;;;;;;5092778;28;20553;-77
2021/03/27 10:30:41;;;;;;;23.20;22.00;;;11.30;45.70;;;;;;5092846;28;20220;-76
2021/03/27 10:33:15;;;;;;;23.60;22.27;;;11.60;45.40;;;;;;5092731;28;20660;-77
2021/03/27 10:36:06;;;;;;;22.60;21.40;;;11.80;44.80;;;;;;5092259;28;20995;-76
2021/03/27 10:39:05;;;;;;;23.60;22.17;;;12.10;44.20;;;;;;5092703;28;20459;-77
2021/03/27 10:41:48;;;;;;;23.20;21.90;;;12.20;44.00;;;;;;5092913;28;20541;-76
2021/03/27 10:44:24;;;;;;;23.43;22.03;;;12.20;43.40;;;;;;5092715;28;20464;-77
2021/03/27 10:47:00;;;;;;;22.70;21.50;;;12.10;44.50;;;;;;5092182;28;20568;-77
2021/03/27 10:49:31;;;;;;;24.63;23.47;;;12.00;44.30;;;;;;5092449;28;20487;-77
2021/03/27 10:52:38;;;;;;;21.90;20.80;;;12.20;43.50;;;;;;5092591;28;20459;-76
2021/03/27 10:55:30;;;;;;;22.57;21.37;;;12.30;43.40;;;;;;5092590;28;20457;-76
2021/03/27 10:58:26;;;;;;;23.83;22.33;;;12.50;43.40;;;;;;5094385;28;20535;-77
2021/03/27 11:01:20;;;;;;;23.10;21.70;;;12.70;42.50;;;;;;5095005;28;20461;-77
2021/03/27 11:04:28;;;;;;;22.47;21.27;;;12.80;42.90;;;;;;5093940;28;20965;-76
2021/03/27 11:07:48;;;;;;;23.77;22.47;;;13.00;41.50;;;;;;5096054;28;20489;-77
2021/03/27 11:10:51;;;;;;;22.70;21.40;;;13.00;41.30;;;;;;5096152;28;20477;-77
2021/03/27 11:14:00;;;;;;;24.50;22.90;;;13.00;42.20;;;;;;5096275;28;20531;-77
2021/03/27 11:16:52;;;;;;;23.57;22.27;;;12.60;42.50;;;;;;5096035;28;20444;-77
2021/03/27 11:19:48;;;;;;;23.70;22.17;;;12.30;43.40;;;;;;5082218;28;20473;-77
2021/03/27 11:22:36;;;;;;;22.50;21.20;;;12.10;44.40;;;;;;5095894;28;20457;-77
2021/03/27 11:25:33;;;;;;;23.47;22.07;;;12.10;44.70;;;;;;5095831;28;20456;-77
2021/03/27 11:28:10;;;;;;;23.37;22.07;;;12.10;44.90;;;;;;5095815;28;20455;-77
2021/03/27 11:30:41;;;;;;;23.10;21.80;;;12.10;44.70;;;;;;5095779;28;20465;-78
2021/03/27 11:33:23;;;;;;;22.27;20.87;;;12.30;44.60;;;;;;5095813;28;20529;-76
2021/03/27 11:35:57;;;;;;;25.80;24.40;;;12.00;44.10;;;;;;5095528;28;20457;-76
2021/03/27 11:38:33;;;;;;;22.03;20.83;;;11.80;45.00;;;;;;5095743;28;20456;-77
2021/03/27 11:41:08;;;;;;;22.33;21.00;;;11.80;45.10;;;;;;5095449;28;20482;-77
2021/03/27 11:43:46;;;;;;;22.83;21.60;;;11.60;44.70;;;;;;5095539;28;20456;-77
2021/03/27 11:46:22;;;;;;;22.47;21.07;;;11.20;45.90;;;;;;5095272;28;20571;-77
2021/03/27 11:48:52;;;;;;;22.93;21.53;;;11.30;46.30;;;;;;5095397;28;20456;-76
2021/03/27 11:51:27;;;;;;;23.02;21.70;;;11.30;46.30;;;;;;5095343;28;20924;-77
2021/03/27 11:54:25;;;;;;;22.98;21.67;;;11.20;46.00;;;;;;5095298;28;20282;-77
2021/03/27 11:57:19;;;;;;;24.80;23.30;;;11.40;46.70;;;;;;5094597;28;20230;-77
2021/03/27 12:02:54;;;;;;;24.60;23.03;;;11.80;46.20;;;;;;5095325;28;20478;-77
2021/03/27 12:05:34;;;;;;;24.50;23.00;;;11.80;45.10;;;;;;5095020;28;20448;-79
2021/03/27 12:08:13;;;;;;;22.63;21.33;;;11.70;46.10;;;;;;5095132;28;20455;-77
2021/03/27 12:10:54;;;;;;;23.03;21.70;;;11.50;45.40;;;;;;5094954;28;20524;-77
2021/03/27 12:13:26;;;;;;;25.13;23.50;;;11.40;47.30;;;;;;5095132;28;20461;-77
2021/03/27 12:16:02;;;;;;;22.63;21.33;;;11.50;46.20;;;;;;5093846;28;20457;-77
2021/03/27 12:18:54;;;;;;;23.30;22.00;;;11.60;46.40;;;;;;5095013;28;20542;-77
2021/03/27 12:21:26;;;;;;;22.67;21.27;;;11.90;46.30;;;;;;5094875;28;20538;-77
2021/03/27 12:23:58;;;;;;;23.50;22.10;;;11.90;47.30;;;;;;5094816;28;20453;-77
2021/03/27 12:26:32;;;;;;;22.77;21.10;;;11.90;46.40;;;;;;5094489;28;20553;-77
2021/03/27 12:29:09;;;;;;;22.27;21.00;;;12.00;47.20;;;;;;5094568;28;20986;-78
2021/03/27 12:32:13;;;;;;;22.07;20.77;;;12.20;45.40;;;;;;5094764;28;20540;-77
2021/03/27 12:34:47;;;;;;;22.33;21.00;;;12.30;44.90;;;;;;5094402;28;20457;-77
2021/03/27 12:37:18;;;;;;;21.67;20.47;;;12.50;44.30;;;;;;5094354;28;20476;-77
2021/03/27 12:39:56;;;;;;;23.27;21.90;;;12.60;44.20;;;;;;5094675;28;20587;-77
2021/03/27 12:42:26;;;;;;;22.90;21.60;;;12.70;44.30;;;;;;5094474;28;20498;-77
2021/03/27 12:44:57;;;;;;;21.37;20.07;;;12.90;44.10;;;;;;5094696;28;20464;-77
2021/03/27 12:47:41;;;;;;;23.33;21.53;;;13.10;43.20;;;;;;5094133;28;20473;-77
2021/03/27 12:50:20;;;;;;;23.70;22.17;;;13.00;43.30;;;;;;5091125;28;20476;-77
2021/03/27 12:53:15;;;;;;;22.47;21.17;;;13.00;43.90;;;;;;5096327;28;20468;-77
2021/03/27 12:55:51;;;;;;;22.20;20.90;;;13.10;44.30;;;;;;5096366;28;20450;-76
2021/03/27 12:58:45;;;;;;;22.80;21.50;;;13.20;42.30;;;;;;5094165;28;20459;-77
2021/03/27 13:01:43;;;;;;;22.03;20.83;;;13.10;42.00;;;;;;5094333;28;20453;-77
2021/03/27 13:04:46;;;;;;;22.67;21.30;;;12.90;41.80;;;;;;5093948;28;20463;-77
2021/03/27 13:07:22;;;;;;;22.57;21.27;;;12.70;41.80;;;;;;5093858;28;20884;-77
2021/03/27 13:10:20;;;;;;;23.20;21.80;;;12.60;43.10;;;;;;5093733;28;20839;-77
2021/03/27 13:13:23;;;;;;;22.80;21.50;;;12.70;42.80;;;;;;5093519;28;20467;-77
2021/03/27 13:15:57;;;;;;;23.93;22.63;;;12.70;42.90;;;;;;5093024;28;21003;-77
2021/03/27 13:18:49;;;;;;;23.33;22.03;;;12.60;42.20;;;;;;5093202;28;20810;-77
2021/03/27 13:21:30;;;;;;;22.13;20.93;;;12.60;43.00;;;;;;5093165;28;21026;-77
2021/03/27 13:24:01;;;;;;;22.47;21.27;;;12.50;41.50;;;;;;5093192;28;20520;-77
2021/03/27 13:26:30;;;;;;;23.10;21.53;;;12.40;42.10;;;;;;5092650;28;20477;-77
2021/03/27 13:29:03;;;;;;;22.40;21.10;;;12.50;42.30;;;;;;5093168;28;20477;-77
2021/03/27 13:31:41;;;;;;;23.63;22.43;;;12.60;42.10;;;;;;5094074;28;20998;-77
2021/03/27 13:34:14;;;;;;;22.50;21.20;;;12.80;42.60;;;;;;5093014;28;20456;-77
2021/03/27 13:36:44;;;;;;;22.07;20.87;;;13.10;42.60;;;;;;5092628;28;20882;-77
2021/03/27 13:39:28;;;;;;;23.60;22.30;;;13.20;42.70;;;;;;5093119;28;20469;-77
2021/03/27 13:42:26;;;;;;;22.90;21.60;;;13.40;41.80;;;;;;5092882;28;20487;-77
2021/03/27 13:45:01;;;;;;;24.40;22.90;;;13.50;41.40;;;;;;5092923;28;20455;-77
2021/03/27 13:47:38;;;;;;;23.87;22.40;;;13.40;41.30;;;;;;5092445;28;20476;-77
2021/03/27 13:50:30;;;;;;;24.30;22.60;;;13.40;41.60;;;;;;5092743;28;20476;-76
2021/03/27 13:53:18;;;;;;;24.37;22.77;;;13.40;41.60;;;;;;5079090;28;20465;-77
2021/03/27 13:55:56;;;;;;;23.37;22.07;;;12.90;42.10;;;;;;5092185;28;20841;-77